Hauptseite
METAR-TAF:

METAR-TAF

Flughäfen :

Fliegerhorst Wunstorf

Wunstorf, Deutschland

Breite: 52-27N, Länge: 009-26E, Höhe: 57 m

Beobachtung

Neuester Wetterbericht von vor 47 Minuten, um 08:20 UTC
Wind 4 kt aus Ost
Temperatur 25°C
Luftfeuchtigkeit 44%
Luftdruck 1024 hPa
Sichtweite 10 km oder mehr
Leicht bewölkt in der Höhe von 35000 ft

METAR: ETNW 110820Z 08004KT 9999 FEW350 25/12 Q1024 BLU+BLU+

Zeit: 11:07 (09:07 UTC)

Prognose

Neuester Wetterbericht von vor 4 Stunden und 49 Minuten, um 04:18 UTC
Gültige Prognose vom 11 um 05 UTC bis 12 um 05 UTC
Wind 5 kt aus Ost/Nordost
Sichtweite 10 km oder mehr
Aufgelockert bewölkt in der Höhe von 35000 ft

TAF: ETNW 110418Z 1105/1205 07005KT 9999 NSW SCT350 BY ETGL

Wetterbeobachtungen und Prognosen von mehr als 4000 Flughäfen (METAR und TAF Bericht).

Die verfügbaren Stationen werden durch gelbe und rote Markierungen auf der Karte dargestellt.

Führen Sie die Maus auf sie, um den Namen der Station zu sehen.

Darauf klicken, um die Beobachtung von Wetterbeobachtungen und Prognosen zu sehen.

Um die Karte zu ändern : klicken Sie auf den grünen Tasten mit einem schwarzen Kreuz Zum Vergrößern, auf den grünen Button mit einem Gedankenstrich zu verkleinern, oder auf die grünen Pfeile für benachbarte Karten.


METAR-TAF: